LGSR Airport Information

Runway Information
Runway 16L Length 6972 ft width 98 ft
Elevation 123 ft Threshold 0 ft Heading 159
Runway 34R Length 6972 ft Width 98 ft
Elevation 53 ft Threshold 0 ft Heading 339
Runway 16R Length 0 ft width 0 ft
Elevation 126 ft Threshold 0 ft Heading 0
Runway 34L Length 0 ft Width 0 ft
Elevation 57 ft Threshold 0 ft Heading 0
Airport Frequencies
Type A/G Name RDO Frequency 563.7 MHZ
Type APP Name APP Frequency 118.05 MHZ
Type TWR Name TWR Frequency 118.05 MHZ
Airport Navaids
Type TACAN Name Santorini Frequency 116400 KHZ
Type VOR-DME Name Santorini Frequency 110400 KHZ
Type NDB Name Thira Frequency 307 KHZ
Airport Weather Information & NOTAM
ADDS - METARS form results

(1329 UTC 20 April 2021)
Data provider http://aviationweather.gov/metar/data/
 
METAR text: LGSR 201320Z 29014KT 9999 SCT020 18/08 Q1015
Conditions at: LGSR (SANTORINI ISLAND, GR) observed 1320 UTC 20 April 2021
Temperature: 18.0°C (64°F)
Dewpoint: 8.0°C (46°F) [RH = 52%]
Pressure (altimeter): 29.97 inches Hg (1015.0 mb)
Winds: from the WNW (290 degrees) at 16 MPH (14 knots; 7.2 m/s)
Visibility: 6 or more miles (10+ km)
Ceiling: at least 12,000 feet AGL
Clouds: scattered clouds at 2000 feet AGL
Weather: no significant weather observed at this time

METAR text: LGSR 201250Z 29014KT 9999 SCT020 18/08 Q1016
Conditions at: LGSR (SANTORINI ISLAND, GR) observed 1250 UTC 20 April 2021
Temperature: 18.0°C (64°F)
Dewpoint: 8.0°C (46°F) [RH = 52%]
Pressure (altimeter): 30.00 inches Hg (1016.0 mb)
Winds: from the WNW (290 degrees) at 16 MPH (14 knots; 7.2 m/s)
Visibility: 6 or more miles (10+ km)
Ceiling: at least 12,000 feet AGL
Clouds: scattered clouds at 2000 feet AGL
Weather: no significant weather observed at this time

Forecast for: LGSR (SANTORINI ISLAND, GR)
Text: TAF LGSR 201100Z 2012/2112 27018KT 9999 FEW020
Forecast period: 1200 UTC 20 April 2021 to 0300 UTC 21 April 2021
Forecast type: FROM: standard forecast or significant change
Winds: from the W (270 degrees) at 21 MPH (18 knots; 9.3 m/s)
Visibility: 6 or more miles (10+ km)
Ceiling: at least 12,000 feet AGL
Clouds: few clouds at 2000 feet AGL
Weather: no significant weather forecast for this period
Text: BECMG 2103/2105 28008KT
Forecast period: 0300 to 1200 UTC 21 April 2021
Forecast type: BECOMING: Conditions expected to become as follows by 0500 UTC 21 April 2021
Winds: from the W (280 degrees) at 9 MPH (8 knots; 4.1 m/s)
Visibility: 6 or more miles (10+ km)
Ceiling: at least 12,000 feet AGL
Clouds: few clouds at 2000 feet AGL
Weather: no significant weather forecast for this period